Time;durP1;ratioP1;P1;durP2;ratioP2;P2;SDS_P1;SDS_P2;PMS_P1;PMS_P2;Temp;Humidity;BMP_temperature;BMP_pressure;BME280_temperature;BME280_humidity;BME280_pressure;Samples;Min_cycle;Max_cycle;Signal;HPM_P1;HPM_P2
2023/12/05 00:00:22;;;;;;;;;;;;;;;;;;5136559;28;20006;-47
2023/12/05 00:02:47;;;;;;;;;;;;;;;;;;5136389;28;19927;-43
2023/12/05 00:05:13;;;;;;;;;;;;;;;;;;5136372;28;19970;-47
2023/12/05 00:07:38;;;;;;;;;;;;;;;;;;5136071;28;19923;-46
2023/12/05 00:10:04;;;;;;;;;;;;;;;;;;5137257;27;20383;-46
2023/12/05 00:12:29;;;;;;;;;;;;;;;;;;5155940;27;20385;-45
2023/12/05 00:14:55;;;;;;;;;;;;;;;;;;5156435;27;19923;-44
2023/12/05 00:17:20;;;;;;;;;;;;;;;;;;5157088;27;20347;-45
2023/12/05 00:19:46;;;;;;;;;;;;;;;;;;5156990;27;19930;-47
2023/12/05 00:22:11;;;;;;;;;;;;;;;;;;5156956;27;19962;-45
2023/12/05 00:24:37;;;;;;;;;;;;;;;;;;5157002;27;19938;-45
2023/12/05 00:27:02;;;;;;;;;;;;;;;;;;5156970;27;19923;-45
2023/12/05 00:29:27;;;;;;;;;;;;;;;;;;5156915;27;19930;-46
2023/12/05 00:31:53;;;;;;;;;;;;;;;;;;5156400;27;20440;-46
2023/12/05 00:34:18;;;;;;;;;;;;;;;;;;5156146;27;20331;-46
2023/12/05 00:36:44;;;;;;;;;;;;;;;;;;5156480;27;20055;-46
2023/12/05 00:39:09;;;;;;;;;;;;;;;;;;5156463;27;20019;-46
2023/12/05 00:41:35;;;;;;;;;;;;;;;;;;5156490;27;19927;-48
2023/12/05 00:44:00;;;;;;;;;;;;;;;;;;5156241;27;19958;-45
2023/12/05 00:46:27;;;;;;;;;;;;;;;;;;5156613;27;19935;-45
2023/12/05 00:48:52;;;;;;;;;;;;;;;;;;5156465;27;20375;-47
2023/12/05 00:51:18;;;;;;;;;;;;;;;;;;5156523;27;19923;-46
2023/12/05 00:53:43;;;;;;;;;;;;;;;;;;5155732;27;19930;-45
2023/12/05 00:56:09;;;;;;;;;;;;;;;;;;5156358;27;19931;-45
2023/12/05 00:58:34;;;;;;;;;;;;;;;;;;5156531;27;20278;-47
2023/12/05 01:01:00;;;;;;;;;;;;;;;;;;5156249;27;19985;-46
2023/12/05 01:03:25;;;;;;;;;;;;;;;;;;5156356;27;20358;-46
2023/12/05 01:05:51;;;;;;;;;;;;;;;;;;5156217;27;20382;-46
2023/12/05 01:08:16;;;;;;;;;;;;;;;;;;5155770;27;19958;-48
2023/12/05 01:10:42;;;;;;;;;;;;;;;;;;5156189;27;20018;-48
2023/12/05 01:13:07;;;;;;;;;;;;;;;;;;5153207;27;19965;-45
2023/12/05 01:15:33;;;;;;;;;;;;;;;;;;5155424;27;19965;-46
2023/12/05 01:17:58;;;;;;;;;;;;;;;;;;5155873;27;20334;-45
2023/12/05 01:20:24;;;;;;;;;;;;;;;;;;5156042;27;20366;-47
2023/12/05 01:22:49;;;;;;;;;;;;;;;;;;5155953;27;20017;-47
2023/12/05 01:25:15;;;;;;;;;;;;;;;;;;5156003;27;19967;-47
2023/12/05 01:27:40;;;;;;;;;;;;;;;;;;5156094;27;19929;-48
2023/12/05 01:30:06;;;;;;;;;;;;;;;;;;5155949;27;19950;-47
2023/12/05 01:32:31;;;;;;;;;;;;;;;;;;5155983;27;19923;-45
2023/12/05 01:34:57;;;;;;;;;;;;;;;;;;5155392;27;19923;-46
2023/12/05 01:37:22;;;;;;;;;;;;;;;;;;5155588;27;20014;-45
2023/12/05 01:39:48;;;;;;;;;;;;;;;;;;5155398;27;19923;-46
2023/12/05 01:42:13;;;;;;;;;;;;;;;;;;5155637;27;20013;-43
2023/12/05 01:44:39;;;;;;;;;;;;;;;;;;5155290;27;19969;-46
2023/12/05 01:47:04;;;;;;;;;;;;;;;;;;5155374;27;20459;-47
2023/12/05 01:49:33;;;;;;;;;;;;;;;;;;5155427;27;19923;-45
2023/12/05 01:51:59;;;;;;;;;;;;;;;;;;5155570;27;19930;-44
2023/12/05 01:54:24;;;;;;;;;;;;;;;;;;5155209;27;19962;-47
2023/12/05 01:56:50;;;;;;;;;;;;;;;;;;5155012;27;19944;-46
2023/12/05 01:59:15;;;;;;;;;;;;;;;;;;5155529;27;19927;-46
2023/12/05 02:01:41;;;;;;;;;;;;;;;;;;5155332;27;20338;-45
2023/12/05 02:04:06;;;;;;;;;;;;;;;;;;5155438;27;19927;-46
2023/12/05 02:06:32;;;;;;;;;;;;;;;;;;5154081;27;19936;-43
2023/12/05 02:08:57;;;;;;;;;;;;;;;;;;5154910;27;19963;-43
2023/12/05 02:11:23;;;;;;;;;;;;;;;;;;5155137;27;20323;-47
2023/12/05 02:13:48;;;;;;;;;;;;;;;;;;5153859;27;19923;-44
2023/12/05 02:16:14;;;;;;;;;;;;;;;;;;5154052;27;19923;-47
2023/12/05 02:18:39;;;;;;;;;;;;;;;;;;5154946;27;19974;-46
2023/12/05 02:21:05;;;;;;;;;;;;;;;;;;5154703;27;19926;-45
2023/12/05 02:23:30;;;;;;;;;;;;;;;;;;5154768;27;19929;-44
2023/12/05 02:25:56;;;;;;;;;;;;;;;;;;5155051;27;20398;-45
2023/12/05 02:28:21;;;;;;;;;;;;;;;;;;5155011;27;20263;-45
2023/12/05 02:30:47;;;;;;;;;;;;;;;;;;5155029;27;20337;-48
2023/12/05 02:33:12;;;;;;;;;;;;;;;;;;5155028;27;20023;-44
2023/12/05 02:35:38;;;;;;;;;;;;;;;;;;5154367;27;20060;-44
2023/12/05 02:38:05;;;;;;;;;;;;;;;;;;5154582;27;20366;-46
2023/12/05 02:40:30;;;;;;;;;;;;;;;;;;5154513;27;19923;-48
2023/12/05 02:42:56;;;;;;;;;;;;;;;;;;5154550;27;19981;-45
2023/12/05 02:45:21;;;;;;;;;;;;;;;;;;5154219;27;20039;-48
2023/12/05 02:47:47;;;;;;;;;;;;;;;;;;5154594;27;19929;-44
2023/12/05 02:50:12;;;;;;;;;;;;;;;;;;5154381;27;20046;-47
2023/12/05 02:52:38;;;;;;;;;;;;;;;;;;5154549;27;20006;-48
2023/12/05 02:55:03;;;;;;;;;;;;;;;;;;5154306;27;19961;-46
2023/12/05 02:57:29;;;;;;;;;;;;;;;;;;5154304;27;19983;-45
2023/12/05 02:59:54;;;;;;;;;;;;;;;;;;5154402;27;20389;-47
2023/12/05 03:02:20;;;;;;;;;;;;;;;;;;5154504;27;20393;-46
2023/12/05 03:04:45;;;;;;;;;;;;;;;;;;5154496;27;19974;-46
2023/12/05 03:07:11;;;;;;;;;;;;;;;;;;5154478;27;19927;-43
2023/12/05 03:09:36;;;;;;;;;;;;;;;;;;5153838;27;20413;-44
2023/12/05 03:12:01;;;;;;;;;;;;;;;;;;5154102;27;19923;-44
2023/12/05 03:14:27;;;;;;;;;;;;;;;;;;5153810;27;19955;-47
2023/12/05 03:16:53;;;;;;;;;;;;;;;;;;5152266;27;19923;-48
2023/12/05 03:19:18;;;;;;;;;;;;;;;;;;5154145;27;20380;-47
2023/12/05 03:21:45;;;;;;;;;;;;;;;;;;5153655;27;19923;-47
2023/12/05 03:24:10;;;;;;;;;;;;;;;;;;5154047;27;19934;-44
2023/12/05 03:26:36;;;;;;;;;;;;;;;;;;5154085;27;19923;-47
2023/12/05 03:29:01;;;;;;;;;;;;;;;;;;5154215;27;19992;-45
2023/12/05 03:31:27;;;;;;;;;;;;;;;;;;5154096;27;19926;-45
2023/12/05 03:33:52;;;;;;;;;;;;;;;;;;5154090;27;19954;-47
2023/12/05 03:36:18;;;;;;;;;;;;;;;;;;5153583;27;20018;-48
2023/12/05 03:38:43;;;;;;;;;;;;;;;;;;5153754;27;19959;-45
2023/12/05 03:41:09;;;;;;;;;;;;;;;;;;5153706;27;20026;-45
2023/12/05 03:43:35;;;;;;;;;;;;;;;;;;5153679;27;19983;-48
2023/12/05 03:46:00;;;;;;;;;;;;;;;;;;5153233;27;20025;-44
2023/12/05 03:48:25;;;;;;;;;;;;;;;;;;5153643;27;19927;-48
2023/12/05 03:50:51;;;;;;;;;;;;;;;;;;5153796;27;19923;-43
2023/12/05 03:53:17;;;;;;;;;;;;;;;;;;5153696;27;19930;-43
2023/12/05 03:55:42;;;;;;;;;;;;;;;;;;5153436;27;19998;-44
2023/12/05 03:58:08;;;;;;;;;;;;;;;;;;5153671;27;19975;-45
2023/12/05 04:00:33;;;;;;;;;;;;;;;;;;5153604;27;20021;-44
2023/12/05 04:02:59;;;;;;;;;;;;;;;;;;5153643;27;19966;-45
2023/12/05 04:05:24;;;;;;;;;;;;;;;;;;5153824;27;19954;-45
2023/12/05 04:07:50;;;;;;;;;;;;;;;;;;5153763;27;19927;-45
2023/12/05 04:10:15;;;;;;;;;;;;;;;;;;5153401;27;20021;-47
2023/12/05 04:12:40;;;;;;;;;;;;;;;;;;5153397;27;19971;-45
2023/12/05 04:15:06;;;;;;;;;;;;;;;;;;5152930;27;20019;-43
2023/12/05 04:17:31;;;;;;;;;;;;;;;;;;5150694;27;19959;-44
2023/12/05 04:19:57;;;;;;;;;;;;;;;;;;5134303;27;19923;-43
2023/12/05 04:22:23;;;;;;;;;;;;;;;;;;5132620;28;20083;-47
2023/12/05 04:24:48;;;;;;;;;;;;;;;;;;5132599;28;20345;-44
2023/12/05 04:27:14;;;;;;;;;;;;;;;;;;5132781;28;19923;-46
2023/12/05 04:29:39;;;;;;;;;;;;;;;;;;5134918;27;19966;-45
2023/12/05 04:32:05;;;;;;;;;;;;;;;;;;5136198;28;19980;-47
2023/12/05 04:34:30;;;;;;;;;;;;;;;;;;5136246;28;20022;-46
2023/12/05 04:36:56;;;;;;;;;;;;;;;;;;5135588;28;20022;-46
2023/12/05 04:39:21;;;;;;;;;;;;;;;;;;5135928;28;19979;-42
2023/12/05 04:41:46;;;;;;;;;;;;;;;;;;5135946;28;20010;-45
2023/12/05 04:44:12;;;;;;;;;;;;;;;;;;5135094;28;20405;-45
2023/12/05 04:46:37;;;;;;;;;;;;;;;;;;5135915;28;20402;-47
2023/12/05 04:49:03;;;;;;;;;;;;;;;;;;5135664;28;20291;-45
2023/12/05 04:51:28;;;;;;;;;;;;;;;;;;5135802;28;19927;-44
2023/12/05 04:53:54;;;;;;;;;;;;;;;;;;5135762;28;19970;-47
2023/12/05 04:56:19;;;;;;;;;;;;;;;;;;5135195;28;19931;-45
2023/12/05 04:58:45;;;;;;;;;;;;;;;;;;5135703;28;20381;-47
2023/12/05 05:01:10;;;;;;;;;;;;;;;;;;5135579;28;19979;-45
2023/12/05 05:03:36;;;;;;;;;;;;;;;;;;5135756;28;20024;-46
2023/12/05 05:06:01;;;;;;;;;;;;;;;;;;5135597;28;20389;-45
2023/12/05 05:08:27;;;;;;;;;;;;;;;;;;5135449;28;19923;-46
2023/12/05 05:10:52;;;;;;;;;;;;;;;;;;5135553;28;20022;-47
2023/12/05 05:13:18;;;;;;;;;;;;;;;;;;5134890;28;20418;-46
2023/12/05 05:15:43;;;;;;;;;;;;;;;;;;5134880;28;20027;-47
2023/12/05 05:18:09;;;;;;;;;;;;;;;;;;5135007;28;19977;-47
2023/12/05 05:20:34;;;;;;;;;;;;;;;;;;5139854;27;20341;-47
2023/12/05 05:23:00;;;;;;;;;;;;;;;;;;5135287;28;20006;-45
2023/12/05 05:25:25;;;;;;;;;;;;;;;;;;5135137;28;20298;-46
2023/12/05 05:27:51;;;;;;;;;;;;;;;;;;5135257;28;19963;-47
2023/12/05 05:30:16;;;;;;;;;;;;;;;;;;5135047;28;20021;-45
2023/12/05 05:32:42;;;;;;;;;;;;;;;;;;5135205;28;20427;-45
2023/12/05 05:35:07;;;;;;;;;;;;;;;;;;5129671;27;20007;-46
2023/12/05 05:37:33;;;;;;;;;;;;;;;;;;5128501;28;19948;-45
2023/12/05 05:39:58;;;;;;;;;;;;;;;;;;5121708;28;19924;-46
2023/12/05 05:42:24;;;;;;;;;;;;;;;;;;5114393;28;20022;-46
2023/12/05 05:44:49;;;;;;;;;;;;;;;;;;5131290;28;20023;-46
2023/12/05 05:47:15;;;;;;;;;;;;;;;;;;5118096;27;20362;-43
2023/12/05 05:49:40;;;;;;;;;;;;;;;;;;5121231;28;19959;-46
2023/12/05 05:52:06;;;;;;;;;;;;;;;;;;5125231;28;19928;-44
2023/12/05 05:54:31;;;;;;;;;;;;;;;;;;5122226;28;20022;-44
2023/12/05 05:56:57;;;;;;;;;;;;;;;;;;5128421;28;20018;-47
2023/12/05 05:59:22;;;;;;;;;;;;;;;;;;5132523;28;19963;-43
2023/12/05 06:01:48;;;;;;;;;;;;;;;;;;5114151;28;19975;-44
2023/12/05 06:04:13;;;;;;;;;;;;;;;;;;5125984;28;19924;-42
2023/12/05 06:06:39;;;;;;;;;;;;;;;;;;5139597;27;19948;-44
2023/12/05 06:09:05;;;;;;;;;;;;;;;;;;5148592;27;20010;-44
2023/12/05 06:11:31;;;;;;;;;;;;;;;;;;5125587;28;19928;-43
2023/12/05 06:13:56;;;;;;;;;;;;;;;;;;5127303;28;19923;-42
2023/12/05 06:16:22;;;;;;;;;;;;;;;;;;5135393;27;19927;-46
2023/12/05 06:18:47;;;;;;;;;;;;;;;;;;5133016;28;19981;-44
2023/12/05 06:21:13;;;;;;;;;;;;;;;;;;5132618;27;20041;-43
2023/12/05 06:23:39;;;;;;;;;;;;;;;;;;5131317;28;19923;-45
2023/12/05 06:26:05;;;;;;;;;;;;;;;;;;5132935;28;19924;-48
2023/12/05 06:28:30;;;;;;;;;;;;;;;;;;5132867;28;19985;-46
2023/12/05 06:30:55;;;;;;;;;;;;;;;;;;5132021;28;19964;-43
2023/12/05 06:33:21;;;;;;;;;;;;;;;;;;5130290;28;19931;-44
2023/12/05 06:35:47;;;;;;;;;;;;;;;;;;5118588;27;20376;-51
2023/12/05 06:38:12;;;;;;;;;;;;;;;;;;5115475;27;20402;-47
2023/12/05 06:40:37;;;;;;;;;;;;;;;;;;5123228;27;20313;-46
2023/12/05 06:43:03;;;;;;;;;;;;;;;;;;5125316;28;19924;-54
2023/12/05 06:45:29;;;;;;;;;;;;;;;;;;5127700;27;20007;-55
2023/12/05 06:47:54;;;;;;;;;;;;;;;;;;5121725;27;19976;-54
2023/12/05 06:50:20;;;;;;;;;;;;;;;;;;5113421;28;19923;-54
2023/12/05 06:52:45;;;;;;;;;;;;;;;;;;5120133;27;19931;-55
2023/12/05 06:55:10;;;;;;;;;;;;;;;;;;5113128;28;20395;-54
2023/12/05 06:57:36;;;;;;;;;;;;;;;;;;5117995;27;20256;-55
2023/12/05 07:00:03;;;;;;;;;;;;;;;;;;5120868;28;19959;-54
2023/12/05 07:02:29;;;;;;;;;;;;;;;;;;5119498;27;19974;-55
2023/12/05 07:04:57;;;;;;;;;;;;;;;;;;5115242;28;20045;-57
2023/12/05 07:07:22;;;;;;;;;;;;;;;;;;5114636;28;19932;-57
2023/12/05 07:09:48;;;;;;;;;;;;;;;;;;5110012;28;20039;-57
2023/12/05 07:12:13;;;;;;;;;;;;;;;;;;5109859;28;20015;-55
2023/12/05 07:14:39;;;;;;;;;;;;;;;;;;5115078;28;19936;-55
2023/12/05 07:17:05;;;;;;;;;;;;;;;;;;5121885;27;19938;-54
2023/12/05 07:19:30;;;;;;;;;;;;;;;;;;5118724;27;20372;-55
2023/12/05 07:21:56;;;;;;;;;;;;;;;;;;5113783;27;20446;-54
2023/12/05 07:24:21;;;;;;;;;;;;;;;;;;5118663;27;20021;-55
2023/12/05 07:26:48;;;;;;;;;;;;;;;;;;5115279;27;20279;-51
2023/12/05 07:29:13;;;;;;;;;;;;;;;;;;5121631;28;19931;-57
2023/12/05 07:31:39;;;;;;;;;;;;;;;;;;5115209;28;19931;-57
2023/12/05 07:34:04;;;;;;;;;;;;;;;;;;5117637;27;19973;-54
2023/12/05 07:36:30;;;;;;;;;;;;;;;;;;5048030;28;19954;-54
2023/12/05 07:38:55;;;;;;;;;;;;;;;;;;5052792;28;19932;-54
2023/12/05 07:41:22;;;;;;;;;;;;;;;;;;5057990;28;20035;-54
2023/12/05 07:43:49;;;;;;;;;;;;;;;;;;5055111;28;20348;-54
2023/12/05 07:46:14;;;;;;;;;;;;;;;;;;5047562;28;19924;-54
2023/12/05 07:48:40;;;;;;;;;;;;;;;;;;5048641;28;19982;-54
2023/12/05 07:51:06;;;;;;;;;;;;;;;;;;5053470;28;19925;-55
2023/12/05 07:53:32;;;;;;;;;;;;;;;;;;5048859;28;20356;-54
2023/12/05 07:55:57;;;;;;;;;;;;;;;;;;5118377;28;20000;-54
2023/12/05 07:58:23;;;;;;;;;;;;;;;;;;5112055;27;19927;-56
2023/12/05 08:00:48;;;;;;;;;;;;;;;;;;5117488;28;20156;-55
2023/12/05 08:03:14;;;;;;;;;;;;;;;;;;5115446;27;19963;-56
2023/12/05 08:05:40;;;;;;;;;;;;;;;;;;5116283;28;19983;-57
2023/12/05 08:08:05;;;;;;;;;;;;;;;;;;5116523;28;21325;-57
2023/12/05 08:10:31;;;;;;;;;;;;;;;;;;5118391;27;19932;-57
2023/12/05 08:12:56;;;;;;;;;;;;;;;;;;5124512;28;20010;-57
2023/12/05 08:15:21;;;;;;;;;;;;;;;;;;5124818;28;20006;-57
2023/12/05 08:17:47;;;;;;;;;;;;;;;;;;5122896;28;20620;-57
2023/12/05 08:20:13;;;;;;;;;;;;;;;;;;5115226;27;20031;-47
2023/12/05 08:22:39;;;;;;;;;;;;;;;;;;5116291;27;19931;-54
2023/12/05 08:25:07;;;;;;;;;;;;;;;;;;5121423;27;19962;-54
2023/12/05 08:27:33;;;;;;;;;;;;;;;;;;5117865;27;20020;-58
2023/12/05 08:29:59;;;;;;;;;;;;;;;;;;5123221;27;19923;-57
2023/12/05 08:32:24;;;;;;;;;;;;;;;;;;5125910;28;19965;-55
2023/12/05 08:34:50;;;;;;;;;;;;;;;;;;5119313;28;20002;-56
2023/12/05 08:37:16;;;;;;;;;;;;;;;;;;5120029;28;19927;-53
2023/12/05 08:39:42;;;;;;;;;;;;;;;;;;5124277;28;20026;-56
2023/12/05 08:42:07;;;;;;;;;;;;;;;;;;5123354;27;20383;-56
2023/12/05 08:44:33;;;;;;;;;;;;;;;;;;5124807;28;19931;-56
2023/12/05 08:46:58;;;;;;;;;;;;;;;;;;5118324;27;19931;-56
2023/12/05 08:49:23;;;;;;;;;;;;;;;;;;5117346;27;20340;-56
2023/12/05 08:51:49;;;;;;;;;;;;;;;;;;5120829;27;19932;-56
2023/12/05 08:54:15;;;;;;;;;;;;;;;;;;5119815;27;19927;-56
2023/12/05 08:56:40;;;;;;;;;;;;;;;;;;5115959;27;19927;-56
2023/12/05 08:59:06;;;;;;;;;;;;;;;;;;5111071;27;20038;-55
2023/12/05 09:01:31;;;;;;;;;;;;;;;;;;5107974;27;19939;-56
2023/12/05 09:03:57;;;;;;;;;;;;;;;;;;5105053;27;19932;-55
2023/12/05 09:06:22;;;;;;;;;;;;;;;;;;5103131;27;20147;-55
2023/12/05 09:08:48;;;;;;;;;;;;;;;;;;5116380;28;19927;-55
2023/12/05 09:11:13;;;;;;;;;;;;;;;;;;5114808;27;20037;-55
2023/12/05 09:13:39;;;;;;;;;;;;;;;;;;5116721;27;19971;-56
2023/12/05 09:16:04;;;;;;;;;;;;;;;;;;5119855;27;19970;-56
2023/12/05 09:18:31;;;;;;;;;;;;;;;;;;5128484;28;19928;-55
2023/12/05 09:20:57;;;;;;;;;;;;;;;;;;5123788;28;19997;-56
2023/12/05 09:23:24;;;;;;;;;;;;;;;;;;5120588;27;19931;-56
2023/12/05 09:25:49;;;;;;;;;;;;;;;;;;5115022;27;19939;-56
2023/12/05 09:28:15;;;;;;;;;;;;;;;;;;5121049;27;19923;-55
2023/12/05 09:30:41;;;;;;;;;;;;;;;;;;5118540;27;19931;-56
2023/12/05 09:33:06;;;;;;;;;;;;;;;;;;5114526;27;20363;-56
2023/12/05 09:35:32;;;;;;;;;;;;;;;;;;5116361;27;19923;-56
2023/12/05 09:37:58;;;;;;;;;;;;;;;;;;5118581;28;20107;-55
2023/12/05 09:40:23;;;;;;;;;;;;;;;;;;5117554;28;19939;-56
2023/12/05 09:42:49;;;;;;;;;;;;;;;;;;5125157;27;20008;-56
2023/12/05 09:45:15;;;;;;;;;;;;;;;;;;5122379;27;20371;-56
2023/12/05 09:47:42;;;;;;;;;;;;;;;;;;5123633;27;19939;-56
2023/12/05 09:50:07;;;;;;;;;;;;;;;;;;5117686;28;19930;-56
2023/12/05 09:52:33;;;;;;;;;;;;;;;;;;5115510;27;20015;-55
2023/12/05 09:54:58;;;;;;;;;;;;;;;;;;5124875;27;19951;-53
2023/12/05 09:57:24;;;;;;;;;;;;;;;;;;5115151;27;19931;-53
2023/12/05 09:59:49;;;;;;;;;;;;;;;;;;5107796;27;19927;-53
2023/12/05 10:02:15;;;;;;;;;;;;;;;;;;5109330;27;19935;-53
2023/12/05 10:04:41;;;;;;;;;;;;;;;;;;5110449;27;19966;-53
2023/12/05 10:07:07;;;;;;;;;;;;;;;;;;5113867;27;20467;-53
2023/12/05 10:09:32;;;;;;;;;;;;;;;;;;5110512;27;20482;-56
2023/12/05 10:11:58;;;;;;;;;;;;;;;;;;5111610;27;19927;-53
2023/12/05 10:14:23;;;;;;;;;;;;;;;;;;5110334;27;19932;-56
2023/12/05 10:16:49;;;;;;;;;;;;;;;;;;5102223;27;20363;-56
2023/12/05 10:19:14;;;;;;;;;;;;;;;;;;5099552;27;20407;-55
2023/12/05 10:21:40;;;;;;;;;;;;;;;;;;5104114;27;19930;-56
2023/12/05 10:24:05;;;;;;;;;;;;;;;;;;5110617;27;19928;-55
2023/12/05 10:26:31;;;;;;;;;;;;;;;;;;5109039;27;19954;-56
2023/12/05 10:28:56;;;;;;;;;;;;;;;;;;5109650;27;19931;-56
2023/12/05 10:31:22;;;;;;;;;;;;;;;;;;5104200;27;19932;-56
2023/12/05 10:33:49;;;;;;;;;;;;;;;;;;5112226;28;20422;-55
2023/12/05 10:36:15;;;;;;;;;;;;;;;;;;5105265;27;19927;-56
2023/12/05 10:38:41;;;;;;;;;;;;;;;;;;5105665;27;19938;-56
2023/12/05 10:41:07;;;;;;;;;;;;;;;;;;5047335;28;19964;-56
2023/12/05 10:43:33;;;;;;;;;;;;;;;;;;5050975;28;20111;-56
2023/12/05 10:45:59;;;;;;;;;;;;;;;;;;5056632;28;20372;-54
2023/12/05 10:48:24;;;;;;;;;;;;;;;;;;5055937;28;19931;-56
2023/12/05 10:50:51;;;;;;;;;;;;;;;;;;5059776;28;19926;-56
2023/12/05 10:53:17;;;;;;;;;;;;;;;;;;5052027;28;19971;-55
2023/12/05 10:55:42;;;;;;;;;;;;;;;;;;5060628;28;19928;-56
2023/12/05 10:58:07;;;;;;;;;;;;;;;;;;5064969;28;19958;-57
2023/12/05 11:00:34;;;;;;;;;;;;;;;;;;5129398;28;19930;-57
2023/12/05 11:02:59;;;;;;;;;;;;;;;;;;5121051;27;20332;-57
2023/12/05 11:05:25;;;;;;;;;;;;;;;;;;5130485;27;19932;-57
2023/12/05 11:07:52;;;;;;;;;;;;;;;;;;5126120;28;20562;-57
2023/12/05 11:10:17;;;;;;;;;;;;;;;;;;5128738;28;19931;-56
2023/12/05 11:12:43;;;;;;;;;;;;;;;;;;5124731;28;19981;-56
2023/12/05 11:15:08;;;;;;;;;;;;;;;;;;5128549;28;19978;-56
2023/12/05 11:17:34;;;;;;;;;;;;;;;;;;5122669;28;19927;-56
2023/12/05 11:19:59;;;;;;;;;;;;;;;;;;5117132;27;20018;-56
2023/12/05 11:22:25;;;;;;;;;;;;;;;;;;5117981;27;20022;-56
2023/12/05 11:24:50;;;;;;;;;;;;;;;;;;5119355;28;20446;-56
2023/12/05 11:27:16;;;;;;;;;;;;;;;;;;5124051;27;19924;-56
2023/12/05 11:29:41;;;;;;;;;;;;;;;;;;5127005;27;20282;-56
2023/12/05 11:32:07;;;;;;;;;;;;;;;;;;5124622;27;19969;-56
2023/12/05 11:34:32;;;;;;;;;;;;;;;;;;5125493;28;19923;-56
2023/12/05 11:36:58;;;;;;;;;;;;;;;;;;5121499;27;19927;-56
2023/12/05 11:39:24;;;;;;;;;;;;;;;;;;5124285;27;19928;-56
2023/12/05 11:41:49;;;;;;;;;;;;;;;;;;5120622;27;19931;-57
2023/12/05 11:44:15;;;;;;;;;;;;;;;;;;5118657;28;20240;-56
2023/12/05 11:46:40;;;;;;;;;;;;;;;;;;5124565;27;20014;-56
2023/12/05 11:49:06;;;;;;;;;;;;;;;;;;5127008;28;19930;-56
2023/12/05 11:51:31;;;;;;;;;;;;;;;;;;5118665;27;19971;-56
2023/12/05 11:53:57;;;;;;;;;;;;;;;;;;5117881;27;20410;-56
2023/12/05 11:56:23;;;;;;;;;;;;;;;;;;5122751;28;19954;-58
2023/12/05 11:58:48;;;;;;;;;;;;;;;;;;5121450;28;19972;-56
2023/12/05 12:01:14;;;;;;;;;;;;;;;;;;5119726;27;20026;-52
2023/12/05 12:03:39;;;;;;;;;;;;;;;;;;5122971;27;19936;-56
2023/12/05 12:06:05;;;;;;;;;;;;;;;;;;5122176;28;19951;-57
2023/12/05 12:08:31;;;;;;;;;;;;;;;;;;5117187;27;19927;-56
2023/12/05 12:10:56;;;;;;;;;;;;;;;;;;5130599;27;20397;-56
2023/12/05 12:13:22;;;;;;;;;;;;;;;;;;5130320;28;20390;-56
2023/12/05 12:15:47;;;;;;;;;;;;;;;;;;5125954;28;20034;-56
2023/12/05 12:18:13;;;;;;;;;;;;;;;;;;5117511;27;19931;-56
2023/12/05 12:20:38;;;;;;;;;;;;;;;;;;5113368;27;20088;-56
2023/12/05 12:23:04;;;;;;;;;;;;;;;;;;5115471;27;19991;-56
2023/12/05 12:25:30;;;;;;;;;;;;;;;;;;5116253;28;19931;-56
2023/12/05 12:27:55;;;;;;;;;;;;;;;;;;5126795;28;19963;-56
2023/12/05 12:30:21;;;;;;;;;;;;;;;;;;5048317;28;20475;-56
2023/12/05 12:32:47;;;;;;;;;;;;;;;;;;5048121;28;20359;-56
2023/12/05 12:35:14;;;;;;;;;;;;;;;;;;5038808;28;20364;-56
2023/12/05 12:37:40;;;;;;;;;;;;;;;;;;5046286;28;19971;-56
2023/12/05 12:40:13;;;;;;;;;;;;;;;;;;5030818;28;20467;-56
2023/12/05 12:42:39;;;;;;;;;;;;;;;;;;5035142;28;20416;-56
2023/12/05 12:45:04;;;;;;;;;;;;;;;;;;5040960;28;20314;-56
2023/12/05 12:47:30;;;;;;;;;;;;;;;;;;5046301;28;19931;-56
2023/12/05 12:49:55;;;;;;;;;;;;;;;;;;5130698;27;20324;-51
2023/12/05 12:52:21;;;;;;;;;;;;;;;;;;5133141;27;20549;-52
2023/12/05 12:54:46;;;;;;;;;;;;;;;;;;5121110;28;19930;-55
2023/12/05 12:57:12;;;;;;;;;;;;;;;;;;5132136;28;19923;-55
2023/12/05 12:59:37;;;;;;;;;;;;;;;;;;5128744;28;20354;-60
2023/12/05 13:02:03;;;;;;;;;;;;;;;;;;5115274;28;19924;-55
2023/12/05 13:04:28;;;;;;;;;;;;;;;;;;5133579;28;20009;-56
2023/12/05 13:06:55;;;;;;;;;;;;;;;;;;5132222;28;20284;-56
2023/12/05 13:09:22;;;;;;;;;;;;;;;;;;5133060;28;20436;-56
2023/12/05 13:11:48;;;;;;;;;;;;;;;;;;5133764;27;19928;-56
2023/12/05 13:14:13;;;;;;;;;;;;;;;;;;5154120;27;19923;-55
2023/12/05 13:16:39;;;;;;;;;;;;;;;;;;5154595;27;19934;-55
2023/12/05 13:19:04;;;;;;;;;;;;;;;;;;5153502;27;19927;-55
2023/12/05 13:21:30;;;;;;;;;;;;;;;;;;5137597;27;20443;-56
2023/12/05 13:23:56;;;;;;;;;;;;;;;;;;5135179;27;19923;-55
2023/12/05 13:26:21;;;;;;;;;;;;;;;;;;5132709;27;19970;-55
2023/12/05 13:28:46;;;;;;;;;;;;;;;;;;5120985;28;20186;-56
2023/12/05 13:31:12;;;;;;;;;;;;;;;;;;5129862;27;20362;-56
2023/12/05 13:33:37;;;;;;;;;;;;;;;;;;5130696;27;19963;-56
2023/12/05 13:36:03;;;;;;;;;;;;;;;;;;5122562;27;20033;-56
2023/12/05 13:38:29;;;;;;;;;;;;;;;;;;5112902;27;19971;-56
2023/12/05 13:40:54;;;;;;;;;;;;;;;;;;5115676;27;20326;-55
2023/12/05 13:43:20;;;;;;;;;;;;;;;;;;5123121;27;19970;-56
2023/12/05 13:45:45;;;;;;;;;;;;;;;;;;5123700;27;19950;-57
2023/12/05 13:48:11;;;;;;;;;;;;;;;;;;5123662;27;20026;-56
2023/12/05 13:50:36;;;;;;;;;;;;;;;;;;5125335;27;19923;-55
2023/12/05 13:53:02;;;;;;;;;;;;;;;;;;5124745;27;19966;-56
2023/12/05 13:55:28;;;;;;;;;;;;;;;;;;5126349;27;19927;-56
2023/12/05 13:57:53;;;;;;;;;;;;;;;;;;5127239;27;19923;-56
2023/12/05 14:00:19;;;;;;;;;;;;;;;;;;5126032;27;20014;-55
2023/12/05 14:02:44;;;;;;;;;;;;;;;;;;5126125;27;19923;-55
2023/12/05 14:05:10;;;;;;;;;;;;;;;;;;5126561;27;19930;-56
2023/12/05 14:07:35;;;;;;;;;;;;;;;;;;5127421;27;19977;-55
2023/12/05 14:10:01;;;;;;;;;;;;;;;;;;5127785;27;20146;-55
2023/12/05 14:12:26;;;;;;;;;;;;;;;;;;5127190;27;19967;-55
2023/12/05 14:14:52;;;;;;;;;;;;;;;;;;5126703;27;20062;-55
2023/12/05 14:17:19;;;;;;;;;;;;;;;;;;5127256;27;20023;-55
2023/12/05 14:19:44;;;;;;;;;;;;;;;;;;5127185;27;20254;-55
2023/12/05 14:22:09;;;;;;;;;;;;;;;;;;5126901;27;20287;-55
2023/12/05 14:24:35;;;;;;;;;;;;;;;;;;5126653;27;19967;-55
2023/12/05 14:27:00;;;;;;;;;;;;;;;;;;5127772;27;19979;-54
2023/12/05 14:29:26;;;;;;;;;;;;;;;;;;5127615;27;19997;-55
2023/12/05 14:31:51;;;;;;;;;;;;;;;;;;5127583;27;19928;-55
2023/12/05 14:34:17;;;;;;;;;;;;;;;;;;5131464;27;19977;-55
2023/12/05 14:36:42;;;;;;;;;;;;;;;;;;5127191;27;19927;-55
2023/12/05 14:39:08;;;;;;;;;;;;;;;;;;5127179;27;20339;-55
2023/12/05 14:41:36;;;;;;;;;;;;;;;;;;5126380;27;20367;-55
2023/12/05 14:44:02;;;;;;;;;;;;;;;;;;5126772;27;19939;-55
2023/12/05 14:46:28;;;;;;;;;;;;;;;;;;5131577;27;20711;-55
2023/12/05 14:48:53;;;;;;;;;;;;;;;;;;5116231;27;19979;-55
2023/12/05 14:51:19;;;;;;;;;;;;;;;;;;5110851;27;19932;-55
2023/12/05 14:53:44;;;;;;;;;;;;;;;;;;5112112;27;20057;-55
2023/12/05 14:56:10;;;;;;;;;;;;;;;;;;5112451;27;19953;-55
2023/12/05 14:58:35;;;;;;;;;;;;;;;;;;5112137;27;19971;-56
2023/12/05 15:01:00;;;;;;;;;;;;;;;;;;5103064;27;19927;-56
2023/12/05 15:03:26;;;;;;;;;;;;;;;;;;5100563;27;19935;-55
2023/12/05 15:05:53;;;;;;;;;;;;;;;;;;5098569;27;19932;-55
2023/12/05 15:08:18;;;;;;;;;;;;;;;;;;5092862;27;19928;-55
2023/12/05 15:10:45;;;;;;;;;;;;;;;;;;5091997;27;21012;-55
2023/12/05 15:13:10;;;;;;;;;;;;;;;;;;5088413;27;20544;-55
2023/12/05 15:15:36;;;;;;;;;;;;;;;;;;5084110;27;21748;-55
2023/12/05 15:18:02;;;;;;;;;;;;;;;;;;5086021;27;19938;-55
2023/12/05 15:20:27;;;;;;;;;;;;;;;;;;5084567;27;21831;-55
2023/12/05 15:22:54;;;;;;;;;;;;;;;;;;5062066;28;21187;-55
2023/12/05 15:25:20;;;;;;;;;;;;;;;;;;5064416;28;19938;-55
2023/12/05 15:27:45;;;;;;;;;;;;;;;;;;5064870;28;19938;-55
2023/12/05 15:30:12;;;;;;;;;;;;;;;;;;5064362;28;19928;-56
2023/12/05 15:32:38;;;;;;;;;;;;;;;;;;5063625;28;20034;-56
2023/12/05 15:35:04;;;;;;;;;;;;;;;;;;5064370;28;19932;-56
2023/12/05 15:37:30;;;;;;;;;;;;;;;;;;5064346;28;20005;-56
2023/12/05 15:39:56;;;;;;;;;;;;;;;;;;5064965;28;19932;-57
2023/12/05 15:42:21;;;;;;;;;;;;;;;;;;5064201;28;19982;-56
2023/12/05 15:44:47;;;;;;;;;;;;;;;;;;5064226;28;20666;-57
2023/12/05 15:47:12;;;;;;;;;;;;;;;;;;5062612;28;20637;-56
2023/12/05 15:49:39;;;;;;;;;;;;;;;;;;5073239;28;20401;-56
2023/12/05 15:52:04;;;;;;;;;;;;;;;;;;5070983;28;20986;-56
2023/12/05 15:54:32;;;;;;;;;;;;;;;;;;5073714;28;19947;-57
2023/12/05 15:56:58;;;;;;;;;;;;;;;;;;5068463;28;19932;-56
2023/12/05 15:59:23;;;;;;;;;;;;;;;;;;5064746;28;19928;-56
2023/12/05 16:01:49;;;;;;;;;;;;;;;;;;5063190;28;19975;-56
2023/12/05 16:04:14;;;;;;;;;;;;;;;;;;5063893;28;19982;-56
2023/12/05 16:06:40;;;;;;;;;;;;;;;;;;5064131;28;20276;-57
2023/12/05 16:09:06;;;;;;;;;;;;;;;;;;5054946;28;19967;-56
2023/12/05 16:11:32;;;;;;;;;;;;;;;;;;5054694;28;19940;-56
2023/12/05 16:13:57;;;;;;;;;;;;;;;;;;5061108;28;20436;-56
2023/12/05 16:16:23;;;;;;;;;;;;;;;;;;5073103;28;20830;-57
2023/12/05 16:18:48;;;;;;;;;;;;;;;;;;5075787;28;19944;-57
2023/12/05 16:21:14;;;;;;;;;;;;;;;;;;5097066;28;19924;-56
2023/12/05 16:23:40;;;;;;;;;;;;;;;;;;5104474;28;19985;-56
2023/12/05 16:26:07;;;;;;;;;;;;;;;;;;5108815;28;19924;-57
2023/12/05 16:28:32;;;;;;;;;;;;;;;;;;5109352;28;19955;-56
2023/12/05 16:31:00;;;;;;;;;;;;;;;;;;5112606;28;20390;-56
2023/12/05 16:33:25;;;;;;;;;;;;;;;;;;5107856;28;19924;-56